createdAt,value
2016-03-09T00:00:24.050Z,0
2016-03-09T00:01:24.022Z,0
2016-03-09T00:02:24.008Z,0
2016-03-09T00:03:23.963Z,0
2016-03-09T00:04:23.983Z,0
2016-03-09T00:05:23.922Z,0
2016-03-09T00:06:23.894Z,0
2016-03-09T00:07:23.912Z,0
2016-03-09T00:08:23.852Z,0
2016-03-09T00:09:23.855Z,0
2016-03-09T00:10:23.827Z,0
2016-03-09T00:11:23.829Z,0
2016-03-09T00:12:23.754Z,0
2016-03-09T00:13:23.741Z,0
2016-03-09T00:14:23.712Z,0
2016-03-09T00:15:23.699Z,0
2016-03-09T00:16:23.671Z,0
2016-03-09T00:17:23.470Z,0
2016-03-09T00:18:23.614Z,0
2016-03-09T00:19:23.601Z,0
2016-03-09T00:20:23.572Z,0
2016-03-09T00:21:23.528Z,0
2016-03-09T00:22:23.514Z,0
2016-03-09T00:23:23.502Z,0
2016-03-09T00:24:23.473Z,0
2016-03-09T00:25:23.445Z,0
2016-03-09T00:26:23.432Z,0
2016-03-09T00:27:23.434Z,0
2016-03-09T00:28:23.422Z,0
2016-03-09T00:29:23.362Z,0
2016-03-09T00:30:23.333Z,0
2016-03-09T00:31:23.326Z,0
2016-03-09T00:32:23.298Z,0
2016-03-09T00:33:23.285Z,0
2016-03-09T00:34:23.241Z,0
2016-03-09T00:35:23.228Z,0
2016-03-09T00:36:23.200Z,0
2016-03-09T00:37:23.155Z,0
2016-03-09T00:38:23.142Z,0
2016-03-09T00:39:23.286Z,0
2016-03-09T00:40:23.085Z,0
2016-03-09T00:41:23.072Z,0
2016-03-09T00:42:23.075Z,0
2016-03-09T00:43:23.015Z,0
2016-03-09T00:44:23.018Z,0
2016-03-09T00:45:22.974Z,0
2016-03-09T00:46:22.944Z,0
2016-03-09T00:47:22.932Z,0
2016-03-09T00:48:22.949Z,0
2016-03-09T00:49:22.891Z,0
2016-03-09T00:50:23.112Z,0
2016-03-09T00:51:22.833Z,0
2016-03-09T00:52:22.789Z,0
2016-03-09T00:53:22.792Z,0
2016-03-09T00:54:22.763Z,0
2016-03-09T00:55:22.829Z,0
2016-03-09T00:56:22.721Z,0
2016-03-09T00:57:22.678Z,0
2016-03-09T00:58:22.665Z,0
2016-03-09T00:59:22.636Z,0
2016-03-09T01:00:22.639Z,0
2016-03-09T01:01:22.595Z,0
2016-03-09T01:02:22.581Z,0
2016-03-09T01:03:22.569Z,0
2016-03-09T01:04:22.509Z,0
2016-03-09T01:05:22.543Z,0
2016-03-09T01:06:22.299Z,0
2016-03-09T01:07:22.432Z,0
2016-03-09T01:08:22.434Z,0
2016-03-09T01:09:22.406Z,0
2016-03-09T01:10:22.378Z,0
2016-03-09T01:11:22.349Z,0
2016-03-09T01:12:22.336Z,0
2016-03-09T01:13:22.292Z,0
2016-03-09T01:14:22.279Z,0
2016-03-09T01:15:22.250Z,0
2016-03-09T01:16:22.222Z,0
2016-03-09T01:17:22.209Z,0
2016-03-09T01:18:22.164Z,0
2016-03-09T01:19:22.167Z,0
2016-03-09T01:20:22.122Z,0
2016-03-09T01:21:22.126Z,0
2016-03-09T01:22:22.081Z,0
2016-03-09T01:23:22.069Z,0
2016-03-09T01:24:22.041Z,0
2016-03-09T01:25:22.011Z,0
2016-03-09T01:26:22.030Z,0
2016-03-09T01:27:22.002Z,0
2016-03-09T01:28:21.957Z,0
2016-03-09T01:29:21.913Z,0
2016-03-09T01:30:21.946Z,0
2016-03-09T01:31:21.872Z,0
2016-03-09T01:32:21.858Z,0
2016-03-09T01:33:21.830Z,0
2016-03-09T01:34:21.786Z,0
2016-03-09T01:35:21.773Z,0
2016-03-09T01:36:21.869Z,0
2016-03-09T01:37:21.732Z,0
2016-03-09T01:38:21.703Z,0
2016-03-09T01:39:21.689Z,0
2016-03-09T01:40:21.692Z,0
2016-03-09T01:41:21.632Z,0
2016-03-09T01:42:21.635Z,0
2016-03-09T01:43:21.576Z,0
2016-03-09T01:44:21.562Z,0
2016-03-09T01:45:21.534Z,0
2016-03-09T01:46:21.520Z,0
2016-03-09T01:47:21.743Z,0
2016-03-09T01:48:21.480Z,0
2016-03-09T01:49:21.466Z,0
2016-03-09T01:50:21.406Z,0
2016-03-09T01:51:21.378Z,0
2016-03-09T01:52:21.459Z,0
2016-03-09T01:53:21.369Z,0
2016-03-09T01:54:21.308Z,0
2016-03-09T01:55:21.295Z,0
2016-03-09T01:56:21.266Z,0
2016-03-09T01:57:21.255Z,0
2016-03-09T01:58:21.326Z,0
2016-03-09T01:59:21.270Z,0
2016-03-09T02:00:21.090Z,0
2016-03-09T02:01:22.260Z,0
2016-03-09T02:02:21.137Z,0
2016-03-09T02:03:20.779Z,0
2016-03-09T02:04:20.923Z,0
2016-03-09T02:05:20.879Z,0
2016-03-09T02:06:20.855Z,0
2016-03-09T02:07:20.859Z,0
2016-03-09T02:08:21.033Z,0
2016-03-09T02:09:20.940Z,0
2016-03-09T02:10:21.385Z,0
2016-03-09T02:11:20.939Z,0
2016-03-09T02:12:20.865Z,0
2016-03-09T02:13:20.852Z,0
2016-03-09T02:14:20.824Z,0
2016-03-09T02:15:20.811Z,0
2016-03-09T02:16:20.766Z,0
2016-03-09T02:17:20.770Z,0
2016-03-09T02:18:19.991Z,0
2016-03-09T02:19:20.713Z,0
2016-03-09T02:20:20.668Z,0
2016-03-09T02:21:20.640Z,0
2016-03-09T02:22:20.627Z,0
2016-03-09T02:23:20.567Z,0
2016-03-09T02:24:20.570Z,0
2016-03-09T02:25:20.541Z,0
2016-03-09T02:26:20.543Z,0
2016-03-09T02:27:20.500Z,0
2016-03-09T02:28:20.471Z,0
2016-03-09T02:29:20.442Z,0
2016-03-09T02:30:20.429Z,0
2016-03-09T02:31:20.401Z,0
2016-03-09T02:32:20.389Z,0
2016-03-09T02:33:20.703Z,0
2016-03-09T02:34:20.330Z,0
2016-03-09T02:35:20.303Z,0
2016-03-09T02:36:20.289Z,0
2016-03-09T02:37:20.245Z,0
2016-03-09T02:38:20.405Z,0
2016-03-09T02:39:20.203Z,0
2016-03-09T02:40:20.175Z,0
2016-03-09T02:41:20.146Z,0
2016-03-09T02:42:20.134Z,0
2016-03-09T02:43:20.105Z,0
2016-03-09T02:44:20.091Z,0
2016-03-09T02:45:20.064Z,0
2016-03-09T02:46:20.035Z,0
2016-03-09T02:47:20.007Z,0
2016-03-09T02:48:19.994Z,0
2016-03-09T02:49:20.215Z,0
2016-03-09T02:50:19.937Z,0
2016-03-09T02:51:19.954Z,0
2016-03-09T02:52:19.896Z,0
2016-03-09T02:53:19.929Z,0
2016-03-09T02:54:19.837Z,0
2016-03-09T02:55:19.825Z,0
2016-03-09T02:56:19.781Z,0
2016-03-09T02:57:19.751Z,0
2016-03-09T02:58:19.740Z,0
2016-03-09T02:59:19.742Z,0
2016-03-09T03:00:19.698Z,0
2016-03-09T03:01:19.669Z,0
2016-03-09T03:02:19.625Z,0
2016-03-09T03:03:19.612Z,0
2016-03-09T03:04:19.583Z,0
2016-03-09T03:05:19.570Z,0
2016-03-09T03:06:19.542Z,0
2016-03-09T03:07:19.513Z,0
2016-03-09T03:08:19.500Z,0
2016-03-09T03:09:19.456Z,0
2016-03-09T03:10:19.428Z,0
2016-03-09T03:11:19.461Z,0
2016-03-09T03:12:19.402Z,0
2016-03-09T03:13:19.358Z,0
2016-03-09T03:14:19.344Z,0
2016-03-09T03:15:19.582Z,0
2016-03-09T03:16:19.335Z,0
2016-03-09T03:17:19.322Z,0
2016-03-09T03:18:19.246Z,0
2016-03-09T03:19:19.218Z,0
2016-03-09T03:20:19.189Z,0
2016-03-09T03:21:19.176Z,0
2016-03-09T03:22:19.148Z,0
2016-03-09T03:23:19.197Z,0
2016-03-09T03:24:19.106Z,0
2016-03-09T03:25:19.077Z,0
2016-03-09T03:26:19.048Z,0
2016-03-09T03:27:18.880Z,0
2016-03-09T03:28:18.992Z,0
2016-03-09T03:29:18.978Z,0
2016-03-09T03:30:19.184Z,0
2016-03-09T03:31:18.922Z,0
2016-03-09T03:32:18.908Z,0
2016-03-09T03:33:18.865Z,0
2016-03-09T03:34:18.836Z,0
2016-03-09T03:35:18.948Z,0
2016-03-09T03:36:18.794Z,0
2016-03-09T03:37:18.766Z,0
2016-03-09T03:38:18.753Z,0
2016-03-09T03:39:18.724Z,0
2016-03-09T03:40:18.712Z,0
2016-03-09T03:41:18.667Z,0
2016-03-09T03:42:18.639Z,0
2016-03-09T03:43:18.657Z,0
2016-03-09T03:44:18.597Z,0
2016-03-09T03:45:18.569Z,0
2016-03-09T03:46:18.821Z,0
2016-03-09T03:47:18.527Z,0
2016-03-09T03:48:18.514Z,0
2016-03-09T03:49:18.704Z,0
2016-03-09T03:50:18.442Z,0
2016-03-09T03:51:18.429Z,0
2016-03-09T03:52:18.385Z,0
2016-03-09T03:53:18.371Z,0
2016-03-09T03:54:18.374Z,0
2016-03-09T03:55:18.346Z,0
2016-03-09T03:56:18.301Z,0
2016-03-09T03:57:18.304Z,0
2016-03-09T03:58:18.245Z,0
2016-03-09T03:59:18.232Z,0
2016-03-09T04:00:18.234Z,0
2016-03-09T04:01:18.190Z,0
2016-03-09T04:02:18.161Z,0
2016-03-09T04:03:18.148Z,0
2016-03-09T04:04:18.103Z,0
2016-03-09T04:05:18.123Z,0
2016-03-09T04:06:18.047Z,0
2016-03-09T04:07:18.050Z,0
2016-03-09T04:08:18.052Z,0
2016-03-09T04:09:18.008Z,0
2016-03-09T04:10:17.964Z,0
2016-03-09T04:11:17.935Z,0
2016-03-09T04:12:17.908Z,0
2016-03-09T04:13:17.878Z,0
2016-03-09T04:14:17.849Z,0
2016-03-09T04:15:17.852Z,0
2016-03-09T04:16:17.824Z,0
2016-03-09T04:17:17.796Z,0
2016-03-09T04:18:17.751Z,0
2016-03-09T04:19:17.722Z,0
2016-03-09T04:20:17.710Z,0
2016-03-09T04:21:17.524Z,0
2016-03-09T04:22:17.669Z,0
2016-03-09T04:23:17.640Z,0
2016-03-09T04:24:17.627Z,0
2016-03-09T04:25:17.582Z,0
2016-03-09T04:26:17.601Z,0
2016-03-09T04:27:17.557Z,0
2016-03-09T04:28:17.521Z,0
2016-03-09T04:29:17.464Z,0
2016-03-09T04:30:17.439Z,0
2016-03-09T04:31:17.383Z,0
2016-03-09T04:32:17.374Z,0
2016-03-09T04:33:17.355Z,0
2016-03-09T04:34:17.306Z,0
2016-03-09T04:35:17.289Z,0
2016-03-09T04:36:17.084Z,0
2016-03-09T04:37:17.396Z,0
2016-03-09T04:38:17.177Z,0
2016-03-09T04:39:17.162Z,0
2016-03-09T04:40:17.148Z,0
2016-03-09T04:41:17.103Z,0
2016-03-09T04:42:17.104Z,0
2016-03-09T04:43:17.073Z,0
2016-03-09T04:44:17.013Z,0
2016-03-09T04:45:16.999Z,0
2016-03-09T04:46:17.017Z,0
2016-03-09T04:49:23.867Z,0
2016-03-09T04:50:24.119Z,0
2016-03-09T04:51:23.825Z,0
2016-03-09T04:52:23.796Z,0
2016-03-09T04:53:23.798Z,0
2016-03-09T04:54:23.754Z,0
2016-03-09T04:55:23.757Z,0
2016-03-09T04:56:23.682Z,0
2016-03-09T04:57:54.996Z,0
2016-03-09T04:58:23.530Z,0
2016-03-09T04:59:23.517Z,0
2016-03-09T05:00:23.505Z,0
2016-03-09T05:01:23.460Z,0
2016-03-09T05:02:23.463Z,0
2016-03-09T05:03:23.404Z,0
2016-03-09T05:04:23.390Z,0
2016-03-09T05:05:23.377Z,0
2016-03-09T05:06:23.167Z,0
2016-03-09T05:07:23.326Z,0
2016-03-09T05:08:23.282Z,0
2016-03-09T05:09:23.253Z,0
2016-03-09T05:10:23.241Z,0
2016-03-09T05:11:23.212Z,0
2016-03-09T05:12:23.199Z,0
2016-03-09T05:13:23.155Z,0
2016-03-09T05:14:23.142Z,0
2016-03-09T05:15:23.145Z,0
2016-03-09T05:16:23.084Z,0
2016-03-09T05:17:23.072Z,0
2016-03-09T05:18:23.059Z,0
2016-03-09T05:19:23.015Z,0
2016-03-09T05:20:23.001Z,0
2016-03-09T05:21:22.942Z,0
2016-03-09T05:22:22.773Z,0
2016-03-09T05:23:22.931Z,0
2016-03-09T05:24:22.872Z,0
2016-03-09T05:25:22.858Z,0
2016-03-09T05:26:22.830Z,0
2016-03-09T05:27:22.849Z,0
2016-03-09T05:28:22.789Z,0
2016-03-09T05:29:22.776Z,0
2016-03-09T05:30:22.733Z,0
2016-03-09T05:31:22.703Z,0
2016-03-09T05:32:22.706Z,0
2016-03-09T05:33:22.646Z,0
2016-03-09T05:34:22.633Z,0
2016-03-09T05:35:22.636Z,0
2016-03-09T05:36:22.576Z,4
2016-03-09T05:37:22.594Z,4
2016-03-09T05:38:22.534Z,0
2016-03-09T05:39:22.507Z,4
2016-03-09T05:40:22.510Z,4
2016-03-09T05:41:22.683Z,4
2016-03-09T05:42:22.452Z,8
2016-03-09T05:43:22.455Z,4
2016-03-09T05:44:22.395Z,8
2016-03-09T05:45:22.398Z,8
2016-03-09T05:46:22.400Z,8
2016-03-09T05:47:22.309Z,12
2016-03-09T05:48:22.280Z,16
2016-03-09T05:49:22.298Z,16
2016-03-09T05:50:22.271Z,16
2016-03-09T05:51:22.195Z,20
2016-03-09T05:52:22.166Z,24
2016-03-09T05:53:22.153Z,28
2016-03-09T05:54:22.125Z,28
2016-03-09T05:55:22.127Z,32
2016-03-09T05:56:22.083Z,36
2016-03-09T05:57:22.070Z,40
2016-03-09T05:58:22.026Z,44
2016-03-09T05:59:21.998Z,48
2016-03-09T06:00:21.985Z,52
2016-03-09T06:01:21.954Z,60
2016-03-09T06:02:21.956Z,60
2016-03-09T06:03:21.927Z,68
2016-03-09T06:04:21.884Z,72
2016-03-09T06:05:21.840Z,76
2016-03-09T06:06:21.811Z,88
2016-03-09T06:07:21.830Z,88
2016-03-09T06:08:21.769Z,96
2016-03-09T06:09:21.772Z,104
2016-03-09T06:10:21.728Z,108
2016-03-09T06:11:21.716Z,120
2016-03-09T06:12:21.672Z,128
2016-03-09T06:13:21.658Z,132
2016-03-09T06:14:22.099Z,140
2016-03-09T06:15:21.585Z,148
2016-03-09T06:16:21.557Z,156
2016-03-09T06:17:21.543Z,164
2016-03-09T06:18:21.531Z,172
2016-03-09T06:19:21.518Z,180
2016-03-09T06:20:21.490Z,184
2016-03-09T06:21:21.446Z,196
2016-03-09T06:22:21.432Z,200
2016-03-09T06:23:21.388Z,208
2016-03-09T06:24:21.437Z,216
2016-03-09T06:25:21.378Z,220
2016-03-09T06:26:21.162Z,228
2016-03-09T06:27:21.305Z,232
2016-03-09T06:28:21.277Z,236
2016-03-09T06:29:21.264Z,240
2016-03-09T06:30:21.235Z,244
2016-03-09T06:31:21.206Z,252
2016-03-09T06:32:21.381Z,260
2016-03-09T06:33:21.164Z,268
2016-03-09T06:34:21.121Z,280
2016-03-09T06:35:21.124Z,288
2016-03-09T06:36:21.079Z,296
2016-03-09T06:37:21.051Z,300
2016-03-09T06:38:21.038Z,312
2016-03-09T06:39:21.009Z,316
2016-03-09T06:40:20.949Z,320
2016-03-09T06:41:20.936Z,328
2016-03-09T06:42:20.908Z,332
2016-03-09T06:43:21.145Z,340
2016-03-09T06:44:20.883Z,344
2016-03-09T06:45:20.900Z,356
2016-03-09T06:46:20.825Z,360
2016-03-09T06:47:20.796Z,364
2016-03-09T06:48:20.893Z,372
2016-03-09T06:49:20.738Z,376
2016-03-09T06:50:20.727Z,380
2016-03-09T06:51:20.714Z,388
2016-03-09T06:52:20.669Z,392
2016-03-09T06:53:20.641Z,396
2016-03-09T06:54:20.659Z,400
2016-03-09T06:55:20.599Z,400
2016-03-09T06:56:20.554Z,404
2016-03-09T06:57:20.542Z,408
2016-03-09T06:58:20.514Z,412
2016-03-09T06:59:20.501Z,412
2016-03-09T07:00:20.488Z,412
2016-03-09T07:01:20.475Z,416
2016-03-09T07:02:20.414Z,420
2016-03-09T07:03:20.417Z,420
2016-03-09T07:04:20.343Z,424
2016-03-09T07:05:20.361Z,428
2016-03-09T07:06:20.379Z,432
2016-03-09T07:07:20.272Z,440
2016-03-09T07:08:20.275Z,444
2016-03-09T07:09:20.292Z,452
2016-03-09T07:10:20.233Z,452
2016-03-09T07:11:20.190Z,456
2016-03-09T07:12:20.176Z,460
2016-03-09T07:13:20.133Z,460
2016-03-09T07:14:20.103Z,460
2016-03-09T07:15:20.106Z,464
2016-03-09T07:16:20.061Z,464
2016-03-09T07:17:20.049Z,464
2016-03-09T07:18:20.004Z,468
2016-03-09T07:19:19.992Z,468
2016-03-09T07:20:19.948Z,464
2016-03-09T07:21:19.935Z,468
2016-03-09T07:22:19.907Z,468
2016-03-09T07:23:19.893Z,472
2016-03-09T07:24:19.927Z,476
2016-03-09T07:25:19.867Z,480
2016-03-09T07:26:19.823Z,480
2016-03-09T07:27:19.796Z,484
2016-03-09T07:28:19.766Z,488
2016-03-09T07:29:19.722Z,496
2016-03-09T07:30:19.740Z,500
2016-03-09T07:31:19.696Z,504
2016-03-09T07:32:19.668Z,508
2016-03-09T07:33:19.654Z,512
2016-03-09T07:34:19.798Z,520
2016-03-09T07:35:18.848Z,524
2016-03-09T07:36:19.584Z,528
2016-03-09T07:37:19.540Z,536
2016-03-09T07:38:19.527Z,540
2016-03-09T07:39:19.514Z,544
2016-03-09T07:40:19.471Z,548
2016-03-09T07:41:19.458Z,552
2016-03-09T07:42:19.413Z,556
2016-03-09T07:43:19.384Z,560
2016-03-09T07:44:19.355Z,564
2016-03-09T07:45:19.625Z,568
2016-03-09T07:46:19.330Z,572
2016-03-09T07:47:19.270Z,572
2016-03-09T07:48:19.258Z,572
2016-03-09T07:49:19.275Z,576
2016-03-09T07:50:19.200Z,572
2016-03-09T07:51:19.188Z,572
2016-03-09T07:52:19.222Z,572
2016-03-09T07:53:19.130Z,572
2016-03-09T07:54:19.118Z,572
2016-03-09T07:55:19.104Z,576
2016-03-09T07:56:19.060Z,576
2016-03-09T07:57:19.047Z,576
2016-03-09T07:58:19.035Z,576
2016-03-09T07:59:18.974Z,580
2016-03-09T08:00:18.993Z,580
2016-03-09T08:01:18.948Z,580
2016-03-09T08:02:18.904Z,580
2016-03-09T08:03:18.907Z,576
2016-03-09T08:04:18.863Z,572
2016-03-09T08:05:18.834Z,584
2016-03-09T08:06:18.821Z,596
2016-03-09T08:07:18.793Z,608
2016-03-09T08:08:18.764Z,612
2016-03-09T08:09:18.798Z,620
2016-03-09T08:10:18.723Z,620
2016-03-09T08:11:18.678Z,628
2016-03-09T08:12:18.666Z,636
2016-03-09T08:13:18.653Z,640
2016-03-09T08:14:18.608Z,644
2016-03-09T08:15:18.595Z,648
2016-03-09T08:16:18.614Z,656
2016-03-09T08:17:18.539Z,664
2016-03-09T08:18:18.525Z,668
2016-03-09T08:19:18.481Z,672
2016-03-09T08:20:18.468Z,680
2016-03-09T08:21:18.471Z,684
2016-03-09T08:22:18.427Z,684
2016-03-09T08:23:18.414Z,688
2016-03-09T08:24:18.369Z,688
2016-03-09T08:25:18.482Z,692
2016-03-09T08:26:18.313Z,700
2016-03-09T08:27:18.315Z,704
2016-03-09T08:28:18.302Z,712
2016-03-09T08:29:18.227Z,716
2016-03-09T08:30:18.198Z,724
2016-03-09T08:31:18.201Z,724
2016-03-09T08:32:18.157Z,724
2016-03-09T08:33:18.144Z,732
2016-03-09T08:34:18.100Z,736
2016-03-09T08:35:18.087Z,736
2016-03-09T08:36:18.245Z,736
2016-03-09T08:37:18.045Z,736
2016-03-09T08:38:18.018Z,740
2016-03-09T08:39:18.004Z,740
2016-03-09T08:40:17.991Z,736
2016-03-09T08:41:17.962Z,740
2016-03-09T08:42:17.902Z,740
2016-03-09T08:43:17.906Z,744
2016-03-09T08:44:18.034Z,744
2016-03-09T08:45:17.848Z,740
2016-03-09T08:46:17.835Z,740
2016-03-09T08:47:17.775Z,744
2016-03-09T08:48:17.778Z,748
2016-03-09T08:49:17.766Z,752
2016-03-09T08:50:17.706Z,748
2016-03-09T08:51:17.692Z,744
2016-03-09T08:52:17.664Z,744
2016-03-09T08:53:17.480Z,748
2016-03-09T08:54:17.622Z,748
2016-03-09T08:55:17.594Z,752
2016-03-09T08:56:17.549Z,736
2016-03-09T08:57:17.568Z,744
2016-03-09T08:58:17.524Z,748
2016-03-09T08:59:17.495Z,752
2016-03-09T09:00:17.451Z,760
2016-03-09T09:01:17.438Z,764
2016-03-09T09:02:17.426Z,760
2016-03-09T09:03:17.396Z,756
2016-03-09T09:04:17.384Z,776
2016-03-09T09:05:17.401Z,780
2016-03-09T09:06:17.327Z,788
2016-03-09T09:07:17.298Z,784
2016-03-09T09:08:17.254Z,788
2016-03-09T09:09:17.240Z,796
2016-03-09T09:10:17.212Z,800
2016-03-09T09:11:17.184Z,808
2016-03-09T09:12:17.171Z,820
2016-03-09T09:13:17.190Z,828
2016-03-09T09:14:17.114Z,832
2016-03-09T09:15:17.086Z,844
2016-03-09T09:16:17.073Z,848
2016-03-09T09:17:17.028Z,856
2016-03-09T09:18:17.000Z,864
2016-03-09T09:19:16.986Z,872
2016-03-09T09:20:16.989Z,888
2016-03-09T09:21:16.977Z,900
2016-03-09T09:22:17.182Z,892
2016-03-09T09:23:16.935Z,900
2016-03-09T09:24:16.891Z,908
2016-03-09T09:25:16.830Z,920
2016-03-09T09:26:16.818Z,944
2016-03-09T09:27:16.868Z,992
2016-03-09T09:28:16.761Z,1056
2016-03-09T09:29:16.763Z,960
2016-03-09T09:30:16.719Z,976
2016-03-09T09:31:16.706Z,1084
2016-03-09T09:32:16.678Z,976
2016-03-09T09:33:16.665Z,964
2016-03-09T09:34:16.652Z,960
2016-03-09T09:35:16.592Z,960
2016-03-09T09:36:16.595Z,976
2016-03-09T09:37:16.379Z,968
2016-03-09T09:38:16.741Z,968
2016-03-09T09:39:16.525Z,992
2016-03-09T09:40:16.465Z,1024
2016-03-09T09:41:16.515Z,1000
2016-03-09T09:42:16.439Z,976
2016-03-09T09:43:16.395Z,976
2016-03-09T09:44:16.414Z,988
2016-03-09T09:45:16.338Z,1000
2016-03-09T09:46:16.340Z,1008
2016-03-09T09:47:16.328Z,992
2016-03-09T09:48:16.267Z,1028
2016-03-09T09:49:16.255Z,1036
2016-03-09T09:50:16.211Z,1032
2016-03-09T09:51:16.213Z,1136
2016-03-09T09:52:16.170Z,1352
2016-03-09T09:53:16.391Z,1148
2016-03-09T09:54:16.128Z,1052
2016-03-09T09:55:16.099Z,1060
2016-03-09T09:56:16.117Z,1024
2016-03-09T09:57:16.074Z,996
2016-03-09T09:58:16.029Z,996
2016-03-09T09:59:16.000Z,1004
2016-03-09T10:00:15.987Z,1008
2016-03-09T10:01:15.960Z,992
2016-03-09T10:02:15.930Z,992
2016-03-09T10:03:15.902Z,988
2016-03-09T10:04:15.921Z,988
2016-03-09T10:05:15.860Z,1024
2016-03-09T10:06:15.947Z,1040
2016-03-09T10:07:15.903Z,1036
2016-03-09T10:08:15.813Z,1044
2016-03-09T10:09:15.800Z,1016
2016-03-09T10:10:15.739Z,1064
2016-03-09T10:11:15.711Z,1084
2016-03-09T10:12:15.667Z,1076
2016-03-09T10:13:15.670Z,1084
2016-03-09T10:14:15.641Z,1080
2016-03-09T10:15:15.644Z,1084
2016-03-09T10:16:15.600Z,1092
2016-03-09T10:17:15.572Z,1100
2016-03-09T10:18:15.543Z,1076
2016-03-09T10:19:15.498Z,1120
2016-03-09T10:20:15.548Z,1108
2016-03-09T10:21:15.457Z,1132
2016-03-09T10:22:15.444Z,1156
2016-03-09T10:23:15.431Z,1172
2016-03-09T10:24:15.638Z,1328
2016-03-09T10:25:15.390Z,1792
2016-03-09T10:26:15.392Z,1640
2016-03-09T10:27:15.410Z,1528
2016-03-09T10:28:15.288Z,1488
2016-03-09T10:29:15.354Z,1560
2016-03-09T10:30:16.075Z,1668
2016-03-09T10:31:15.734Z,1496
2016-03-09T10:32:15.971Z,1372
2016-03-09T10:33:15.364Z,1288
2016-03-09T10:34:16.054Z,1296
2016-03-09T10:35:15.761Z,1288
2016-03-09T10:36:15.106Z,1300
2016-03-09T10:37:15.094Z,1308
2016-03-09T10:38:15.049Z,1332
2016-03-09T10:39:15.037Z,1348
2016-03-09T10:40:15.086Z,1360
2016-03-09T10:41:14.980Z,1376
2016-03-09T10:42:15.216Z,1384
2016-03-09T10:43:15.328Z,1376
2016-03-09T10:44:14.910Z,1352
2016-03-09T10:45:14.896Z,1356
2016-03-09T10:46:14.869Z,1372
2016-03-09T10:47:14.824Z,1384
2016-03-09T10:48:14.811Z,1412
2016-03-09T10:49:14.813Z,1440
2016-03-09T10:50:14.785Z,1444
2016-03-09T10:51:14.772Z,1452
2016-03-09T10:52:14.821Z,1460
2016-03-09T10:53:14.684Z,1500
2016-03-09T10:54:14.686Z,1508
2016-03-09T10:55:14.690Z,1500
2016-03-09T10:56:14.629Z,1560
2016-03-09T10:57:14.585Z,1556
2016-03-09T10:58:14.557Z,1596
2016-03-09T10:59:14.544Z,1632
2016-03-09T11:00:14.531Z,1604
2016-03-09T11:01:14.486Z,1656
2016-03-09T11:02:14.474Z,1660
2016-03-09T11:03:14.429Z,1696
2016-03-09T11:04:14.417Z,1708
2016-03-09T11:05:14.419Z,1708
2016-03-09T11:06:14.375Z,1696
2016-03-09T11:07:14.347Z,1720
2016-03-09T11:08:14.317Z,1748
2016-03-09T11:09:14.305Z,1768
2016-03-09T11:10:14.370Z,1796
2016-03-09T11:11:14.248Z,1816
2016-03-09T11:12:14.250Z,1836
2016-03-09T11:13:14.222Z,1784
2016-03-09T11:14:14.194Z,1856
2016-03-09T11:15:14.227Z,1908
2016-03-09T11:16:14.121Z,1932
2016-03-09T11:17:14.091Z,1892
2016-03-09T11:18:14.110Z,1872
2016-03-09T11:19:14.066Z,1884
2016-03-09T11:20:14.053Z,1908
2016-03-09T11:21:14.228Z,1956
2016-03-09T11:22:13.980Z,1980
2016-03-09T11:23:13.967Z,1960
2016-03-09T11:24:13.985Z,1968
2016-03-09T11:25:14.004Z,1972
2016-03-09T11:26:14.069Z,1992
2016-03-09T11:27:13.853Z,2004
2016-03-09T11:28:13.887Z,1960
2016-03-09T11:29:13.843Z,1996
2016-03-09T11:30:13.799Z,2000
2016-03-09T11:31:13.817Z,1996
2016-03-09T11:32:13.773Z,1984
2016-03-09T11:33:13.729Z,1984
2016-03-09T11:34:13.700Z,2036
2016-03-09T11:35:13.672Z,2032
2016-03-09T11:36:13.659Z,2012
2016-03-09T11:37:13.615Z,2052
2016-03-09T11:38:13.617Z,2072
2016-03-09T11:39:13.619Z,2028
2016-03-09T11:40:13.576Z,2060
2016-03-09T11:41:13.516Z,2148
2016-03-09T11:42:13.534Z,2128
2016-03-09T11:43:13.506Z,2108
2016-03-09T11:44:13.477Z,2104
2016-03-09T11:45:13.449Z,2144
2016-03-09T11:46:13.419Z,2148
2016-03-09T11:47:13.392Z,2152
2016-03-09T11:48:13.378Z,2168
2016-03-09T11:49:13.335Z,2200
2016-03-09T11:50:13.368Z,2212
2016-03-09T11:51:13.480Z,2224
2016-03-09T11:52:13.264Z,2236
2016-03-09T11:53:13.266Z,2340
2016-03-09T11:54:13.224Z,2360
2016-03-09T11:55:13.241Z,2348
2016-03-09T11:56:13.182Z,2384
2016-03-09T11:57:13.152Z,2452
2016-03-09T11:58:12.718Z,2496
2016-03-09T11:59:13.095Z,2516
2016-03-09T12:00:13.098Z,2544
2016-03-09T12:01:13.100Z,2556
2016-03-09T12:02:13.041Z,2616
2016-03-09T12:03:13.043Z,2664
2016-03-09T12:04:13.000Z,2700
2016-03-09T12:05:13.034Z,2740
2016-03-09T12:06:12.958Z,2716
2016-03-09T12:07:12.914Z,2728
2016-03-09T12:08:12.886Z,2756
2016-03-09T12:09:12.889Z,2844
2016-03-09T12:10:12.844Z,2804
2016-03-09T12:11:12.846Z,2824
2016-03-09T12:12:13.036Z,2832
2016-03-09T12:13:12.805Z,2816
2016-03-09T12:14:12.761Z,2832
2016-03-09T12:15:12.733Z,2804
2016-03-09T12:16:12.750Z,2784
2016-03-09T12:17:12.753Z,2792
2016-03-09T12:18:12.709Z,2828
2016-03-09T12:19:12.633Z,2888
2016-03-09T12:20:12.636Z,2892
2016-03-09T12:21:12.624Z,2940
2016-03-09T12:22:12.563Z,2936
2016-03-09T12:23:12.801Z,3040
2016-03-09T12:24:12.600Z,2972
2016-03-09T12:25:12.541Z,3020
2016-03-09T12:26:12.497Z,3104
2016-03-09T12:27:12.468Z,3116
2016-03-09T12:28:12.532Z,3132
2016-03-09T12:29:12.427Z,3176
2016-03-09T12:30:12.413Z,3140
2016-03-09T12:31:12.385Z,3172
2016-03-09T12:32:12.340Z,3300
2016-03-09T12:33:12.312Z,3204
2016-03-09T12:34:12.314Z,3232
2016-03-09T12:35:12.286Z,3224
2016-03-09T12:36:12.257Z,3276
2016-03-09T12:37:12.229Z,3264
2016-03-09T12:38:12.231Z,3296
2016-03-09T12:39:12.187Z,3380
2016-03-09T12:40:12.222Z,3420
2016-03-09T12:41:12.161Z,3432
2016-03-09T12:42:12.117Z,3468
2016-03-09T12:43:12.105Z,3552
2016-03-09T12:44:12.108Z,3540
2016-03-09T12:45:12.031Z,3492
2016-03-09T12:46:12.034Z,3492
2016-03-09T12:47:11.991Z,3652
2016-03-09T12:48:11.977Z,2664
2016-03-09T12:49:11.964Z,3824
2016-03-09T12:50:11.936Z,3804
2016-03-09T12:51:11.922Z,3736
2016-03-09T12:52:11.879Z,3756
2016-03-09T12:53:11.865Z,4076
2016-03-09T12:54:11.853Z,4008
2016-03-09T12:55:11.808Z,4264
2016-03-09T12:56:11.796Z,7060
2016-03-09T12:57:11.986Z,15956
2016-03-09T12:58:11.785Z,28736
2016-03-09T12:59:11.741Z,28160
2016-03-09T13:00:11.729Z,21504
2016-03-09T13:01:11.699Z,22528
2016-03-09T13:02:11.671Z,17224
2016-03-09T13:03:11.642Z,9132
2016-03-09T13:04:11.629Z,5652
2016-03-09T13:05:11.617Z,5572
2016-03-09T13:06:11.587Z,5336
2016-03-09T13:07:11.560Z,4896
2016-03-09T13:08:11.562Z,4800
2016-03-09T13:09:11.720Z,4808
2016-03-09T13:10:11.630Z,4792
2016-03-09T13:11:11.492Z,4784
2016-03-09T13:12:11.448Z,5064
2016-03-09T13:13:11.419Z,5516
2016-03-09T13:14:11.422Z,5576
2016-03-09T13:15:11.409Z,6108
2016-03-09T13:16:11.396Z,3492
2016-03-09T13:17:11.384Z,4188
2016-03-09T13:18:11.620Z,4540
2016-03-09T13:19:11.295Z,4620
2016-03-09T13:20:11.595Z,4548
2016-03-09T13:21:11.238Z,4528
2016-03-09T13:22:11.069Z,4364
2016-03-09T13:23:11.258Z,4364
2016-03-09T13:24:11.183Z,4264
2016-03-09T13:25:11.296Z,4356
2016-03-09T13:26:11.141Z,4304
2016-03-09T13:27:11.114Z,4256
2016-03-09T13:28:11.116Z,4280
2016-03-09T13:29:11.072Z,4236
2016-03-09T13:30:11.074Z,4148
2016-03-09T13:31:11.093Z,4216
2016-03-09T13:32:11.018Z,4164
2016-03-09T13:33:10.973Z,4072
2016-03-09T13:34:10.957Z,4080
2016-03-09T13:35:10.948Z,4220
2016-03-09T13:36:10.891Z,4196
2016-03-09T13:37:10.851Z,4120
2016-03-09T13:38:10.826Z,4212
2016-03-09T13:39:10.786Z,4028
2016-03-09T13:40:10.753Z,3964
2016-03-09T13:41:10.751Z,3932
2016-03-09T13:42:10.703Z,4012
2016-03-09T13:43:10.560Z,4156
2016-03-09T13:44:10.669Z,3972
2016-03-09T13:45:10.654Z,3868
2016-03-09T13:46:10.640Z,3768
2016-03-09T13:47:10.594Z,3656
2016-03-09T13:48:10.610Z,3720
2016-03-09T13:49:10.549Z,3732
2016-03-09T13:50:10.535Z,3760
2016-03-09T13:51:10.537Z,3712
2016-03-09T13:52:10.477Z,3700
2016-03-09T13:53:10.462Z,3756
2016-03-09T13:54:10.464Z,3792
2016-03-09T13:55:10.421Z,3712
2016-03-09T13:56:10.392Z,3664
2016-03-09T13:57:10.379Z,3604
2016-03-09T13:58:10.367Z,3568
2016-03-09T13:59:10.338Z,3580
2016-03-09T14:00:10.309Z,3584
2016-03-09T14:01:10.281Z,3516
2016-03-09T14:02:10.267Z,3500
2016-03-09T14:03:10.254Z,3560